Terminal Aerodrome Forecast
Issued by NWS Pittsburgh, PA

Current Version | Previous Version | Graphics & Text | Print | Product List | Glossary On
Versions: 1 2 3 4 5 6 7 8 9 10 11 12 13 14 15 16 17 18 19 20 21 22 23 24 25
849
FTUS41 KPBZ 231443 AAA
TAFPIT
TAF AMD
KPIT 231443Z 2315/2418 08008KT P6SM SKC
     FM231700 12005KT P6SM SKC
     FM240700 17008KT P6SM BKN080
     FM241000 17008KT P6SM VCSH BKN060=

USA.gov is the U.S. government's official web portal to all federal, state and local government web resources and services.